createdAt,value
2018-03-31T00:01:00.246Z,4.85
2018-03-31T00:03:27.330Z,4.96
2018-03-31T00:05:54.356Z,4.96
2018-03-31T00:08:21.476Z,4.85
2018-03-31T00:10:48.513Z,4.86
2018-03-31T00:13:15.547Z,4.80
2018-03-31T00:15:42.652Z,4.65
2018-03-31T00:18:09.675Z,4.57
2018-03-31T00:20:36.684Z,4.51
2018-03-31T00:23:03.766Z,4.48
2018-03-31T00:25:30.808Z,4.52
2018-03-31T00:27:57.826Z,4.55
2018-03-31T00:30:24.882Z,4.52
2018-03-31T00:32:51.911Z,4.41
2018-03-31T00:35:18.975Z,4.35
2018-03-31T00:37:46.028Z,4.48
2018-03-31T00:40:13.071Z,4.51
2018-03-31T00:42:40.078Z,4.60
2018-03-31T00:45:07.124Z,4.60
2018-03-31T00:47:34.152Z,4.56
2018-03-31T00:50:01.190Z,4.56
2018-03-31T00:52:28.241Z,4.62
2018-03-31T00:54:55.259Z,4.68
2018-03-31T00:57:22.306Z,4.83
2018-03-31T00:59:50.196Z,4.88
2018-03-31T01:02:17.369Z,4.87
2018-03-31T01:04:44.401Z,4.80
2018-03-31T01:07:12.544Z,4.63
2018-03-31T01:09:39.697Z,4.59
2018-03-31T01:12:06.769Z,4.59
2018-03-31T01:14:33.883Z,4.59
2018-03-31T01:17:01.002Z,4.58
2018-03-31T01:19:28.075Z,4.56
2018-03-31T01:21:55.129Z,4.56
2018-03-31T01:24:22.759Z,4.60
2018-03-31T01:26:49.765Z,4.64
2018-03-31T01:29:17.833Z,4.68
2018-03-31T01:31:44.876Z,4.70
2018-03-31T01:34:13.839Z,4.71
2018-03-31T01:36:40.895Z,4.77
2018-03-31T01:39:07.911Z,4.85
2018-03-31T01:41:35.005Z,4.81
2018-03-31T01:44:02.029Z,4.84
2018-03-31T01:46:29.074Z,4.93
2018-03-31T01:48:56.341Z,4.94
2018-03-31T01:51:23.906Z,4.93
2018-03-31T01:53:51.325Z,4.94
2018-03-31T01:56:18.401Z,5.01
2018-03-31T01:58:45.486Z,5.09
2018-03-31T02:01:12.505Z,5.00
2018-03-31T02:03:39.766Z,4.79
2018-03-31T02:06:09.180Z,4.73
2018-03-31T02:08:36.210Z,4.74
2018-03-31T02:11:03.226Z,4.82
2018-03-31T02:13:32.656Z,4.98
2018-03-31T02:15:59.685Z,4.98
2018-03-31T02:18:26.718Z,4.85
2018-03-31T02:20:54.489Z,4.73
2018-03-31T02:23:22.633Z,4.77
2018-03-31T02:25:51.917Z,4.69
2018-03-31T02:28:19.030Z,4.60
2018-03-31T02:30:46.112Z,4.52
2018-03-31T02:33:13.874Z,4.53
2018-03-31T02:35:42.147Z,4.66
2018-03-31T02:38:09.445Z,4.64
2018-03-31T02:40:37.238Z,4.57
2018-03-31T02:43:04.996Z,4.52
2018-03-31T02:45:33.110Z,4.52
2018-03-31T02:48:00.676Z,4.53
2018-03-31T02:50:28.186Z,4.63
2018-03-31T02:52:55.700Z,4.70
2018-03-31T02:55:22.752Z,4.61
2018-03-31T02:57:50.789Z,4.57
2018-03-31T03:00:17.804Z,4.59
2018-03-31T03:02:44.827Z,4.66
2018-03-31T03:05:11.901Z,4.70
2018-03-31T03:07:38.904Z,4.77
2018-03-31T03:10:05.908Z,4.84
2018-03-31T03:12:32.937Z,4.92
2018-03-31T03:14:59.923Z,5.01
2018-03-31T03:17:26.931Z,5.03
2018-03-31T03:19:53.957Z,5.01
2018-03-31T03:22:21.018Z,4.96
2018-03-31T03:24:48.066Z,4.94
2018-03-31T03:27:15.082Z,4.86
2018-03-31T03:29:42.088Z,4.81
2018-03-31T03:32:09.109Z,4.72
2018-03-31T03:34:36.078Z,4.65
2018-03-31T03:37:03.097Z,4.67
2018-03-31T03:39:30.100Z,4.61
2018-03-31T03:41:57.120Z,4.60
2018-03-31T03:44:24.130Z,4.57
2018-03-31T03:46:51.235Z,4.62
2018-03-31T03:49:18.237Z,4.63
2018-03-31T03:51:45.739Z,4.65
2018-03-31T03:54:12.764Z,4.63
2018-03-31T03:56:39.769Z,4.57
2018-03-31T03:59:06.781Z,4.53
2018-03-31T04:01:33.807Z,4.53
2018-03-31T04:04:01.066Z,4.61
2018-03-31T04:06:28.022Z,4.65
2018-03-31T04:08:55.028Z,4.66
2018-03-31T04:11:22.042Z,4.61
2018-03-31T04:13:49.039Z,4.57
2018-03-31T04:16:16.085Z,4.54
2018-03-31T04:21:14.199Z,4.54
2018-03-31T04:23:41.162Z,4.59
2018-03-31T04:26:08.123Z,4.60
2018-03-31T04:28:35.087Z,4.61
2018-03-31T04:31:02.029Z,4.65
2018-03-31T04:33:28.981Z,4.54
2018-03-31T04:35:55.958Z,4.48
2018-03-31T04:38:22.913Z,4.34
2018-03-31T04:40:49.892Z,4.45
2018-03-31T04:43:16.865Z,4.43
2018-03-31T04:45:43.894Z,4.47
2018-03-31T04:48:10.901Z,4.39
2018-03-31T04:50:37.954Z,4.16
2018-03-31T04:53:05.032Z,4.02
2018-03-31T04:55:33.018Z,3.99
2018-03-31T04:58:00.059Z,3.90
2018-03-31T05:00:27.048Z,3.85
2018-03-31T05:02:54.132Z,3.88
2018-03-31T05:05:21.137Z,3.84
2018-03-31T05:07:48.157Z,3.82
2018-03-31T05:10:15.212Z,3.91
2018-03-31T05:12:42.240Z,4.05
2018-03-31T05:15:09.267Z,3.91
2018-03-31T05:17:36.571Z,3.84
2018-03-31T05:20:03.595Z,3.74
2018-03-31T05:22:30.613Z,3.68
2018-03-31T05:24:57.695Z,3.72
2018-03-31T05:27:24.715Z,3.82
2018-03-31T05:29:51.778Z,3.80
2018-03-31T05:32:18.781Z,3.84
2018-03-31T05:34:45.771Z,3.85
2018-03-31T05:37:12.843Z,3.83
2018-03-31T05:39:39.865Z,4.00
2018-03-31T05:42:06.931Z,3.98
2018-03-31T05:44:33.935Z,4.07
2018-03-31T05:47:00.981Z,4.35
2018-03-31T05:49:28.017Z,4.49
2018-03-31T05:51:55.018Z,4.64
2018-03-31T05:54:22.034Z,4.76
2018-03-31T05:56:49.084Z,4.98
2018-03-31T05:59:16.119Z,5.57
2018-03-31T06:01:43.170Z,6.01
2018-03-31T06:04:10.198Z,6.69
2018-03-31T06:06:37.218Z,6.99
2018-03-31T06:09:04.871Z,7.16
2018-03-31T06:11:31.890Z,7.27
2018-03-31T06:13:58.932Z,7.42
2018-03-31T06:16:26.018Z,7.54
2018-03-31T06:18:53.037Z,7.63
2018-03-31T06:21:20.058Z,7.76
2018-03-31T06:23:47.156Z,7.76
2018-03-31T06:26:14.174Z,7.71
2018-03-31T06:28:41.186Z,7.55
2018-03-31T06:31:08.192Z,7.48
2018-03-31T06:33:35.232Z,7.24
2018-03-31T06:36:02.387Z,7.16
2018-03-31T06:38:29.496Z,7.25
2018-03-31T06:40:56.518Z,7.39
2018-03-31T06:43:23.582Z,7.50
2018-03-31T06:45:50.589Z,7.68
2018-03-31T06:48:17.631Z,7.67
2018-03-31T06:50:44.678Z,7.60
2018-03-31T06:53:11.717Z,7.56
2018-03-31T06:55:38.739Z,7.61
2018-03-31T06:58:05.793Z,7.76
2018-03-31T07:00:32.826Z,7.93
2018-03-31T07:02:59.882Z,7.97
2018-03-31T07:05:26.916Z,8.07
2018-03-31T07:07:53.940Z,8.08
2018-03-31T07:10:21.043Z,8.14
2018-03-31T07:12:48.060Z,8.08
2018-03-31T07:15:15.105Z,8.12
2018-03-31T07:17:42.175Z,8.15
2018-03-31T07:20:09.252Z,8.12
2018-03-31T07:22:36.247Z,8.23
2018-03-31T07:25:03.271Z,8.38
2018-03-31T07:27:30.283Z,8.48
2018-03-31T07:29:57.288Z,8.40
2018-03-31T07:32:24.315Z,8.54
2018-03-31T07:34:51.414Z,8.31
2018-03-31T07:37:18.442Z,8.10
2018-03-31T07:39:45.470Z,8.18
2018-03-31T07:42:12.759Z,7.98
2018-03-31T07:44:39.823Z,7.94
2018-03-31T07:47:06.848Z,7.88
2018-03-31T07:49:33.873Z,7.89
2018-03-31T07:52:01.007Z,8.09
2018-03-31T07:54:27.982Z,8.25
2018-03-31T07:56:55.017Z,8.22
2018-03-31T07:59:22.044Z,8.14
2018-03-31T08:01:49.065Z,8.11
2018-03-31T08:04:16.144Z,8.07
2018-03-31T08:06:43.217Z,8.12
2018-03-31T08:09:10.265Z,8.22
2018-03-31T08:11:37.329Z,8.54
2018-03-31T08:14:04.403Z,8.64
2018-03-31T08:16:31.435Z,8.58
2018-03-31T08:21:36.133Z,8.87
2018-03-31T08:24:07.406Z,9.15
2018-03-31T08:26:38.063Z,9.33
2018-03-31T08:29:08.749Z,9.19
2018-03-31T08:31:39.620Z,9.09
2018-03-31T08:34:11.809Z,9.09
2018-03-31T08:36:42.627Z,9.12
2018-03-31T08:39:13.805Z,9.30
2018-03-31T08:41:44.579Z,9.46
2018-03-31T08:44:16.390Z,9.11
2018-03-31T08:46:47.407Z,9.06
2018-03-31T08:49:18.435Z,8.99
2018-03-31T08:51:49.389Z,8.95
2018-03-31T08:54:20.308Z,8.92
2018-03-31T08:56:51.391Z,8.98
2018-03-31T08:59:22.165Z,8.86
2018-03-31T09:01:49.170Z,8.94
2018-03-31T09:04:16.193Z,8.91
2018-03-31T09:06:43.238Z,8.78
2018-03-31T09:09:10.284Z,8.94
2018-03-31T09:11:37.261Z,9.15
2018-03-31T09:14:04.296Z,8.99
2018-03-31T09:16:31.299Z,8.80
2018-03-31T09:18:58.357Z,9.05
2018-03-31T09:21:25.432Z,9.20
2018-03-31T09:23:52.434Z,9.50
2018-03-31T09:26:19.489Z,9.36
2018-03-31T09:28:46.511Z,9.12
2018-03-31T09:31:13.594Z,9.03
2018-03-31T09:33:40.677Z,8.91
2018-03-31T09:36:07.723Z,9.05
2018-03-31T09:38:34.768Z,9.35
2018-03-31T09:41:01.797Z,9.52
2018-03-31T09:43:28.876Z,9.53
2018-03-31T09:45:55.910Z,9.58
2018-03-31T09:48:22.967Z,9.41
2018-03-31T09:50:50.057Z,9.36
2018-03-31T09:53:17.111Z,9.29
2018-03-31T09:55:44.169Z,9.33
2018-03-31T09:58:11.235Z,9.23
2018-03-31T10:00:38.298Z,8.97
2018-03-31T10:03:05.314Z,8.88
2018-03-31T10:05:32.399Z,8.78
2018-03-31T10:07:59.429Z,8.68
2018-03-31T10:10:26.457Z,8.64
2018-03-31T10:12:53.496Z,8.80
2018-03-31T10:15:20.519Z,9.14
2018-03-31T10:17:47.590Z,9.31
2018-03-31T10:20:14.664Z,9.38
2018-03-31T10:22:41.657Z,9.69
2018-03-31T10:25:08.695Z,10.03
2018-03-31T10:27:35.729Z,9.92
2018-03-31T10:30:02.756Z,10.35
2018-03-31T10:32:29.818Z,10.47
2018-03-31T10:34:56.859Z,10.84
2018-03-31T10:37:23.896Z,11.19
2018-03-31T10:39:50.940Z,11.10
2018-03-31T10:42:18.005Z,11.54
2018-03-31T10:44:45.041Z,11.68
2018-03-31T10:47:12.143Z,11.85
2018-03-31T10:49:39.177Z,12.44
2018-03-31T10:52:06.201Z,13.06
2018-03-31T10:54:33.298Z,13.19
2018-03-31T10:57:00.354Z,12.58
2018-03-31T10:59:27.389Z,12.24
2018-03-31T11:01:54.418Z,12.24
2018-03-31T11:04:21.508Z,11.81
2018-03-31T11:06:48.520Z,11.75
2018-03-31T11:09:15.545Z,12.06
2018-03-31T11:11:42.596Z,12.08
2018-03-31T11:14:09.611Z,12.36
2018-03-31T11:16:36.645Z,12.27
2018-03-31T11:19:03.730Z,11.92
2018-03-31T11:21:30.748Z,11.98
2018-03-31T11:23:57.766Z,12.02
2018-03-31T11:26:24.811Z,12.16
2018-03-31T11:28:51.821Z,12.23
2018-03-31T11:31:18.864Z,12.01
2018-03-31T11:33:45.888Z,12.36
2018-03-31T11:36:12.951Z,12.10
2018-03-31T11:38:39.985Z,11.71
2018-03-31T11:41:07.014Z,11.85
2018-03-31T11:43:34.056Z,12.71
2018-03-31T11:46:01.121Z,13.45
2018-03-31T11:48:28.137Z,13.24
2018-03-31T11:50:55.179Z,13.06
2018-03-31T11:53:22.220Z,14.02
2018-03-31T11:55:49.258Z,14.19
2018-03-31T11:58:16.314Z,14.15
2018-03-31T12:00:43.390Z,13.49
2018-03-31T12:03:10.432Z,13.10
2018-03-31T12:05:37.449Z,12.56
2018-03-31T12:08:04.505Z,12.45
2018-03-31T12:10:31.578Z,12.37
2018-03-31T12:12:58.590Z,12.49
2018-03-31T12:15:25.926Z,12.34
2018-03-31T12:17:52.889Z,12.30
2018-03-31T12:20:19.886Z,12.22
2018-03-31T12:22:46.890Z,11.78
2018-03-31T12:25:13.929Z,11.75
2018-03-31T12:27:41.048Z,11.72
2018-03-31T12:30:08.147Z,11.72
2018-03-31T12:32:35.176Z,11.58
2018-03-31T12:35:02.241Z,11.51
2018-03-31T12:37:29.300Z,11.64
2018-03-31T12:39:56.358Z,11.81
2018-03-31T12:42:23.390Z,12.05
2018-03-31T12:44:50.512Z,12.31
2018-03-31T12:47:17.588Z,12.24
2018-03-31T12:49:44.687Z,12.42
2018-03-31T12:52:11.751Z,11.97
2018-03-31T12:54:38.793Z,11.87
2018-03-31T12:57:05.859Z,11.79
2018-03-31T12:59:32.880Z,11.96
2018-03-31T13:02:00.032Z,11.77
2018-03-31T13:04:27.221Z,11.54
2018-03-31T13:06:54.200Z,11.67
2018-03-31T13:09:21.266Z,11.79
2018-03-31T13:11:48.306Z,11.94
2018-03-31T13:14:15.358Z,11.92
2018-03-31T13:16:42.413Z,11.99
2018-03-31T13:19:09.449Z,11.83
2018-03-31T13:21:36.515Z,11.72
2018-03-31T13:24:03.554Z,11.61
2018-03-31T13:26:30.609Z,11.30
2018-03-31T13:28:57.649Z,11.24
2018-03-31T13:31:24.696Z,11.63
2018-03-31T13:33:51.767Z,11.20
2018-03-31T13:36:18.852Z,11.13
2018-03-31T13:38:46.069Z,11.19
2018-03-31T13:41:13.133Z,11.22
2018-03-31T13:43:40.151Z,11.12
2018-03-31T13:46:07.223Z,11.00
2018-03-31T13:48:34.280Z,11.01
2018-03-31T13:51:01.408Z,11.05
2018-03-31T13:53:28.542Z,10.97
2018-03-31T13:55:55.574Z,11.03
2018-03-31T13:58:22.667Z,10.84
2018-03-31T14:00:49.714Z,10.71
2018-03-31T14:03:16.758Z,10.74
2018-03-31T14:05:43.792Z,10.69
2018-03-31T14:08:10.853Z,10.74
2018-03-31T14:10:37.913Z,10.46
2018-03-31T14:13:04.928Z,10.40
2018-03-31T14:15:32.342Z,10.42
2018-03-31T14:17:59.374Z,10.37
2018-03-31T14:20:26.379Z,10.33
2018-03-31T14:22:53.422Z,10.27
2018-03-31T14:25:20.444Z,10.15
2018-03-31T14:27:47.451Z,10.27
2018-03-31T14:30:14.427Z,10.24
2018-03-31T14:32:41.376Z,10.11
2018-03-31T14:35:08.332Z,10.08
2018-03-31T14:37:35.368Z,10.00
2018-03-31T14:40:02.434Z,9.98
2018-03-31T14:42:29.477Z,9.73
2018-03-31T14:44:56.536Z,9.70
2018-03-31T14:50:13.680Z,9.50
2018-03-31T14:52:40.733Z,9.50
2018-03-31T14:55:07.724Z,9.49
2018-03-31T14:57:34.726Z,9.41
2018-03-31T15:00:01.750Z,9.37
2018-03-31T15:02:28.783Z,9.26
2018-03-31T15:04:55.830Z,9.02
2018-03-31T15:07:22.973Z,8.88
2018-03-31T15:09:50.005Z,8.84
2018-03-31T15:12:17.025Z,8.71
2018-03-31T15:14:44.054Z,8.68
2018-03-31T15:17:11.563Z,8.58
2018-03-31T15:19:39.034Z,8.53
2018-03-31T15:22:06.106Z,8.53
2018-03-31T15:24:33.169Z,8.51
2018-03-31T15:27:00.212Z,8.48
2018-03-31T15:29:27.276Z,8.48
2018-03-31T15:31:54.314Z,8.48
2018-03-31T15:34:21.449Z,8.46
2018-03-31T15:36:48.516Z,8.50
2018-03-31T15:39:15.738Z,8.47
2018-03-31T15:41:43.913Z,8.38
2018-03-31T15:44:10.978Z,8.36
2018-03-31T15:46:38.238Z,8.32
2018-03-31T15:49:05.363Z,8.31
2018-03-31T15:51:33.703Z,8.13
2018-03-31T15:54:00.873Z,7.98
2018-03-31T15:56:27.899Z,7.81
2018-03-31T15:58:55.022Z,7.70
2018-03-31T16:01:23.443Z,7.63
2018-03-31T16:03:50.735Z,7.53
2018-03-31T16:06:18.665Z,7.37
2018-03-31T16:08:46.425Z,7.30
2018-03-31T16:11:13.931Z,7.21
2018-03-31T16:13:41.247Z,7.20
2018-03-31T16:16:08.412Z,7.17
2018-03-31T16:18:37.104Z,7.10
2018-03-31T16:21:06.099Z,7.10
2018-03-31T16:23:33.824Z,7.00
2018-03-31T16:26:00.911Z,6.90
2018-03-31T16:28:29.672Z,6.81
2018-03-31T16:30:56.977Z,6.76
2018-03-31T16:33:28.508Z,6.74
2018-03-31T16:35:57.083Z,6.71
2018-03-31T16:38:25.314Z,6.73
2018-03-31T16:40:52.436Z,6.72
2018-03-31T16:43:19.762Z,6.68
2018-03-31T16:45:48.214Z,6.64
2018-03-31T16:48:15.852Z,6.63
2018-03-31T16:50:42.884Z,6.63
2018-03-31T16:53:09.938Z,6.52
2018-03-31T16:55:36.966Z,6.50
2018-03-31T16:58:03.979Z,6.48
2018-03-31T17:00:30.991Z,6.50
2018-03-31T17:02:58.048Z,6.55
2018-03-31T17:05:25.050Z,6.55
2018-03-31T17:07:52.064Z,6.59
2018-03-31T17:10:19.021Z,6.64
2018-03-31T17:12:46.035Z,6.64
2018-03-31T17:15:13.155Z,6.61
2018-03-31T17:17:40.190Z,6.53
2018-03-31T17:20:07.196Z,6.54
2018-03-31T17:22:34.286Z,6.54
2018-03-31T17:25:01.288Z,6.54
2018-03-31T17:27:28.338Z,6.51
2018-03-31T17:29:55.426Z,6.53
2018-03-31T17:32:22.752Z,6.48
2018-03-31T17:34:49.726Z,6.50
2018-03-31T17:37:16.710Z,6.52
2018-03-31T17:39:43.685Z,6.47
2018-03-31T17:42:10.668Z,6.46
2018-03-31T17:44:37.647Z,6.43
2018-03-31T17:47:04.705Z,6.43
2018-03-31T17:49:31.730Z,6.48
2018-03-31T17:51:58.778Z,6.47
2018-03-31T17:54:25.819Z,6.52
2018-03-31T17:56:52.828Z,6.47
2018-03-31T17:59:19.861Z,6.49
2018-03-31T18:01:46.922Z,6.54
2018-03-31T18:04:13.881Z,6.58
2018-03-31T18:06:40.873Z,6.52
2018-03-31T18:09:07.895Z,6.48
2018-03-31T18:11:34.907Z,6.50
2018-03-31T18:14:01.987Z,6.60
2018-03-31T18:16:28.951Z,6.73
2018-03-31T18:18:55.909Z,6.76
2018-03-31T18:21:22.964Z,6.68
2018-03-31T18:23:49.954Z,6.56
2018-03-31T18:26:16.929Z,6.53
2018-03-31T18:28:43.917Z,6.46
2018-03-31T18:31:10.918Z,6.44
2018-03-31T18:33:37.942Z,6.43
2018-03-31T18:36:05.365Z,6.46
2018-03-31T18:38:32.414Z,6.53
2018-03-31T18:40:59.442Z,6.48
2018-03-31T18:43:26.527Z,6.45
2018-03-31T18:45:53.590Z,6.43
2018-03-31T18:48:20.638Z,6.40
2018-03-31T18:50:47.695Z,6.35
2018-03-31T18:53:14.822Z,6.31
2018-03-31T18:55:41.893Z,6.31
2018-03-31T18:58:09.107Z,6.36
2018-03-31T19:00:36.172Z,6.42
2018-03-31T19:03:03.231Z,6.45
2018-03-31T19:05:30.270Z,6.39
2018-03-31T19:07:57.312Z,6.35
2018-03-31T19:10:24.358Z,6.36
2018-03-31T19:12:51.444Z,6.34
2018-03-31T19:15:18.553Z,6.29
2018-03-31T19:17:45.604Z,6.27
2018-03-31T19:20:17.603Z,6.30
2018-03-31T19:22:44.683Z,6.34
2018-03-31T19:25:17.231Z,6.54
2018-03-31T19:27:44.275Z,6.70
2018-03-31T19:30:11.326Z,6.79
2018-03-31T19:32:38.362Z,6.80
2018-03-31T19:35:05.379Z,6.71
2018-03-31T19:37:32.427Z,6.73
2018-03-31T19:39:59.515Z,6.77
2018-03-31T19:42:26.534Z,6.69
2018-03-31T19:44:53.499Z,6.55
2018-03-31T19:47:20.615Z,6.51
2018-03-31T19:49:47.621Z,6.53
2018-03-31T19:52:14.937Z,6.55
2018-03-31T19:54:42.047Z,6.61
2018-03-31T19:57:09.074Z,6.61
2018-03-31T19:59:36.110Z,6.51
2018-03-31T20:02:03.225Z,6.49
2018-03-31T20:04:30.531Z,6.55
2018-03-31T20:06:57.570Z,6.55
2018-03-31T20:09:24.655Z,6.54
2018-03-31T20:11:51.706Z,6.55
2018-03-31T20:14:18.746Z,6.57
2018-03-31T20:16:45.808Z,6.58
2018-03-31T20:19:12.899Z,6.47
2018-03-31T20:21:39.991Z,6.47
2018-03-31T20:24:07.046Z,6.56
2018-03-31T20:26:34.143Z,6.48
2018-03-31T20:29:01.240Z,6.36
2018-03-31T20:31:28.390Z,6.42
2018-03-31T20:33:55.448Z,6.43
2018-03-31T20:36:22.483Z,6.31
2018-03-31T20:38:49.520Z,6.28
2018-03-31T20:41:16.644Z,6.28
2018-03-31T20:43:43.718Z,6.30
2018-03-31T20:46:10.797Z,6.22
2018-03-31T20:48:37.872Z,6.16
2018-03-31T20:51:04.987Z,6.19
2018-03-31T20:53:32.033Z,6.11
2018-03-31T20:56:12.406Z,6.11
2018-03-31T20:58:39.466Z,6.06
2018-03-31T21:01:06.492Z,6.04
2018-03-31T21:03:33.553Z,6.01
2018-03-31T21:06:00.947Z,6.00
2018-03-31T21:08:28.245Z,5.98
2018-03-31T21:10:55.558Z,5.98
2018-03-31T21:13:22.659Z,6.03
2018-03-31T21:15:49.709Z,5.98
2018-03-31T21:18:16.750Z,5.97
2018-03-31T21:20:44.128Z,5.96
2018-03-31T21:23:11.146Z,5.95
2018-03-31T21:25:38.444Z,5.92
2018-03-31T21:28:05.796Z,5.94
2018-03-31T21:30:33.134Z,5.91
2018-03-31T21:33:00.253Z,5.88
2018-03-31T21:35:27.416Z,5.88
2018-03-31T21:37:55.680Z,5.87
2018-03-31T21:40:31.428Z,5.87
2018-03-31T21:43:05.808Z,5.91
2018-03-31T21:45:33.315Z,5.94
2018-03-31T21:48:00.787Z,5.93
2018-03-31T21:50:28.231Z,5.96
2018-03-31T21:52:56.178Z,5.94
2018-03-31T21:55:23.480Z,5.94
2018-03-31T21:57:50.535Z,6.10
2018-03-31T22:00:17.614Z,6.24
2018-03-31T22:02:44.704Z,6.22
2018-03-31T22:05:11.760Z,6.18
2018-03-31T22:07:38.900Z,6.15
2018-03-31T22:10:05.949Z,6.08
2018-03-31T22:12:32.973Z,6.03
2018-03-31T22:15:05.481Z,6.02
2018-03-31T22:17:32.746Z,5.95
2018-03-31T22:19:59.771Z,5.88
2018-03-31T22:22:26.800Z,5.85
2018-03-31T22:24:53.864Z,5.80
2018-03-31T22:27:20.900Z,5.78
2018-03-31T22:29:47.948Z,5.77
2018-03-31T22:32:15.014Z,5.80
2018-03-31T22:34:42.036Z,5.78
2018-03-31T22:37:09.113Z,5.78
2018-03-31T22:39:36.135Z,5.78
2018-03-31T22:42:03.172Z,5.87
2018-03-31T22:44:30.252Z,5.86
2018-03-31T22:46:57.300Z,5.84
2018-03-31T22:49:24.311Z,5.83
2018-03-31T22:51:51.401Z,5.79
2018-03-31T22:54:18.414Z,5.77
2018-03-31T22:56:45.425Z,5.73
2018-03-31T22:59:12.544Z,5.72
2018-03-31T23:01:39.624Z,5.76
2018-03-31T23:04:06.720Z,5.70
2018-03-31T23:06:33.768Z,5.68
2018-03-31T23:09:00.789Z,5.72
2018-03-31T23:11:27.857Z,5.70
2018-03-31T23:13:54.891Z,5.66
2018-03-31T23:16:21.974Z,5.59
2018-03-31T23:18:48.990Z,5.65
2018-03-31T23:21:16.002Z,5.50
2018-03-31T23:23:43.090Z,5.53
2018-03-31T23:26:10.090Z,5.48
2018-03-31T23:28:37.126Z,5.53
2018-03-31T23:31:04.200Z,5.61
2018-03-31T23:33:31.240Z,5.61
2018-03-31T23:35:58.301Z,5.57
2018-03-31T23:38:25.398Z,5.52
2018-03-31T23:40:52.433Z,5.52
2018-03-31T23:43:19.459Z,5.45
2018-03-31T23:45:46.505Z,5.45
2018-03-31T23:48:13.558Z,5.49
2018-03-31T23:50:40.625Z,5.58
2018-03-31T23:53:07.860Z,5.56
2018-03-31T23:55:34.894Z,5.52
2018-03-31T23:58:01.964Z,5.55
